Time;durP1;ratioP1;P1;durP2;ratioP2;P2;SDS_P1;SDS_P2;PMS_P1;PMS_P2;Temp;Humidity;BMP_temperature;BMP_pressure;BME280_temperature;BME280_humidity;BME280_pressure;Samples;Min_cycle;Max_cycle;Signal;HPM_P1;HPM_P2
2021/12/14 00:00:47;;;;;;;16.73;10.52;;;;;;;;;;4975265;28;20102;-65
2021/12/14 00:03:16;;;;;;;14.43;9.98;;;;;;;;;;4974943;28;20436;-64
2021/12/14 00:05:42;;;;;;;18.08;10.40;;;;;;;;;;4975130;28;20525;-65
2021/12/14 00:08:12;;;;;;;16.60;10.73;;;;;;;;;;4974911;28;20043;-65
2021/12/14 00:10:50;;;;;;;14.48;9.65;;;;;;;;;;4975000;28;20073;-65
2021/12/14 00:15:51;;;;;;;14.95;9.70;;;;;;;;;;4994211;28;20050;-64
2021/12/14 00:18:18;;;;;;;15.50;10.68;;;;;;;;;;4994203;28;20057;-65
2021/12/14 00:20:48;;;;;;;15.15;10.02;;;;;;;;;;4994251;28;20128;-65
2021/12/14 00:25:47;;;;;;;13.80;9.10;;;;;;;;;;4994106;28;20105;-65
2021/12/14 00:28:28;;;;;;;12.27;8.80;;;;;;;;;;4981672;28;20051;-65
2021/12/14 00:30:57;;;;;;;16.50;10.05;;;;;;;;;;4974459;28;20093;-64
2021/12/14 00:33:25;;;;;;;14.77;9.75;;;;;;;;;;4974410;28;20055;-64
2021/12/14 00:35:52;;;;;;;13.23;8.98;;;;;;;;;;4974563;28;20102;-65
2021/12/14 00:38:21;;;;;;;13.75;9.25;;;;;;;;;;4974315;28;20466;-65
2021/12/14 00:40:54;;;;;;;15.93;10.50;;;;;;;;;;4979984;28;20050;-65
2021/12/14 00:43:20;;;;;;;16.25;9.98;;;;;;;;;;4993862;28;20556;-66
2021/12/14 00:45:47;;;;;;;13.80;8.68;;;;;;;;;;4992501;28;20465;-64
2021/12/14 00:48:15;;;;;;;14.43;8.15;;;;;;;;;;4993510;28;20046;-66
2021/12/14 00:50:44;;;;;;;16.48;9.70;;;;;;;;;;4993644;28;20054;-64
2021/12/14 00:53:11;;;;;;;13.10;8.75;;;;;;;;;;4993460;28;20046;-65
2021/12/14 00:55:41;;;;;;;12.73;8.75;;;;;;;;;;4993443;28;20092;-65
2021/12/14 00:58:08;;;;;;;14.23;9.10;;;;;;;;;;4993344;28;20490;-65
2021/12/14 01:00:41;;;;;;;14.70;9.55;;;;;;;;;;4993674;28;20128;-66
2021/12/14 01:03:08;;;;;;;15.75;9.32;;;;;;;;;;4993176;28;20050;-65
2021/12/14 01:05:38;;;;;;;15.75;8.68;;;;;;;;;;4993388;28;20053;-65
2021/12/14 01:08:08;;;;;;;14.20;9.30;;;;;;;;;;4993098;28;20054;-65
2021/12/14 01:10:38;;;;;;;14.48;9.20;;;;;;;;;;4993838;28;20054;-65
2021/12/14 01:13:08;;;;;;;14.18;8.57;;;;;;;;;;4993243;28;20050;-66
2021/12/14 01:21:15;;;;;;;13.93;8.18;;;;;;;;;;4992246;28;20498;-65
2021/12/14 01:23:43;;;;;;;14.23;8.25;;;;;;;;;;4991947;28;20046;-65
2021/12/14 01:26:17;;;;;;;15.57;8.63;;;;;;;;;;4992091;28;20494;-66
2021/12/14 01:28:45;;;;;;;14.13;9.05;;;;;;;;;;4992093;28;20101;-65
2021/12/14 01:31:23;;;;;;;13.80;8.85;;;;;;;;;;4990992;28;20385;-66
2021/12/14 01:33:54;;;;;;;14.18;9.63;;;;;;;;;;4992023;28;20521;-66
2021/12/14 01:36:29;;;;;;;16.35;9.82;;;;;;;;;;4976168;28;20058;-66
2021/12/14 01:41:55;;;;;;;14.85;8.88;;;;;;;;;;4992092;28;20058;-66
2021/12/14 01:44:23;;;;;;;16.30;10.20;;;;;;;;;;4992017;28;20050;-66
2021/12/14 01:47:00;;;;;;;13.82;8.93;;;;;;;;;;4991844;28;20100;-65
2021/12/14 01:49:29;;;;;;;17.02;9.75;;;;;;;;;;4977866;28;20094;-65
2021/12/14 01:51:58;;;;;;;15.75;8.35;;;;;;;;;;4972406;28;20109;-65
2021/12/14 01:54:35;;;;;;;16.05;9.35;;;;;;;;;;4972274;28;20055;-65
2021/12/14 01:57:05;;;;;;;13.88;8.95;;;;;;;;;;4972338;28;20043;-66
2021/12/14 01:59:36;;;;;;;19.00;9.52;;;;;;;;;;4973011;28;20102;-65
2021/12/14 02:02:19;;;;;;;19.52;11.38;;;;;;;;;;4978439;28;20046;-65
2021/12/14 02:04:48;;;;;;;19.17;9.82;;;;;;;;;;4991702;28;20058;-65
2021/12/14 02:07:16;;;;;;;16.92;10.13;;;;;;;;;;4991695;28;20854;-65
2021/12/14 02:09:43;;;;;;;15.77;9.98;;;;;;;;;;4991741;28;20100;-65
2021/12/14 02:12:13;;;;;;;17.92;10.65;;;;;;;;;;4991521;28;20050;-64
2021/12/14 02:14:40;;;;;;;16.30;9.70;;;;;;;;;;4953828;28;1089325;-65
2021/12/14 02:17:10;;;;;;;17.30;9.88;;;;;;;;;;4976334;28;20491;-66
2021/12/14 02:19:37;;;;;;;17.88;9.63;;;;;;;;;;4971782;28;20051;-65
2021/12/14 02:22:05;;;;;;;18.40;10.63;;;;;;;;;;4972722;28;20078;-64
2021/12/14 02:24:32;;;;;;;16.48;10.77;;;;;;;;;;4974322;28;20109;-65
2021/12/14 02:26:59;;;;;;;20.92;11.60;;;;;;;;;;4972640;28;20102;-65
2021/12/14 02:29:27;;;;;;;18.17;10.88;;;;;;;;;;4972909;28;20482;-65
2021/12/14 02:32:01;;;;;;;16.23;10.55;;;;;;;;;;4972943;28;20047;-66
2021/12/14 02:34:28;;;;;;;20.60;10.50;;;;;;;;;;4971584;28;20059;-66
2021/12/14 02:36:54;;;;;;;16.63;9.95;;;;;;;;;;4974623;28;20055;-64
2021/12/14 02:39:46;;;;;;;19.38;11.00;;;;;;;;;;4994182;28;20050;-65
2021/12/14 02:42:11;;;;;;;17.50;10.85;;;;;;;;;;4996175;28;20108;-66
2021/12/14 02:44:38;;;;;;;19.60;11.45;;;;;;;;;;4994642;28;20046;-66
2021/12/14 02:47:13;;;;;;;19.30;11.23;;;;;;;;;;4995803;28;20112;-65
2021/12/14 02:49:40;;;;;;;18.13;10.93;;;;;;;;;;4996012;28;20502;-65
2021/12/14 02:52:10;;;;;;;22.45;11.65;;;;;;;;;;4995893;28;20421;-65
2021/12/14 02:54:40;;;;;;;17.85;11.70;;;;;;;;;;4995778;28;20046;-66
2021/12/14 02:57:22;;;;;;;18.20;10.75;;;;;;;;;;4995817;28;20112;-65
2021/12/14 02:59:49;;;;;;;19.40;10.82;;;;;;;;;;4995827;28;20054;-65
2021/12/14 03:02:22;;;;;;;17.27;10.95;;;;;;;;;;4995658;28;20054;-66
2021/12/14 03:04:55;;;;;;;20.02;11.27;;;;;;;;;;4995504;28;20142;-65
2021/12/14 03:07:24;;;;;;;20.27;11.15;;;;;;;;;;4995440;28;20116;-65
2021/12/14 03:10:00;;;;;;;17.20;10.25;;;;;;;;;;4995569;28;20105;-66
2021/12/14 03:12:29;;;;;;;19.73;11.65;;;;;;;;;;4995605;28;20050;-66
2021/12/14 03:15:03;;;;;;;19.52;10.73;;;;;;;;;;4995220;28;20046;-65
2021/12/14 03:17:29;;;;;;;20.25;10.32;;;;;;;;;;4995601;28;20053;-65
2021/12/14 03:20:10;;;;;;;18.67;10.48;;;;;;;;;;4994713;28;20105;-65
2021/12/14 03:23:02;;;;;;;20.42;11.45;;;;;;;;;;4995463;28;20046;-66
2021/12/14 03:25:34;;;;;;;19.05;10.82;;;;;;;;;;4995289;28;20182;-66
2021/12/14 03:28:00;;;;;;;21.52;11.25;;;;;;;;;;4995018;28;20042;-66
2021/12/14 03:30:27;;;;;;;21.55;10.68;;;;;;;;;;4995363;28;20094;-66
2021/12/14 03:32:56;;;;;;;21.35;10.35;;;;;;;;;;4995096;28;20050;-66
2021/12/14 03:35:36;;;;;;;21.65;9.93;;;;;;;;;;4995071;28;20054;-65
2021/12/14 03:38:16;;;;;;;22.02;11.13;;;;;;;;;;4994984;28;20097;-66
2021/12/14 03:40:43;;;;;;;22.30;10.48;;;;;;;;;;4995119;28;20104;-66
2021/12/14 03:43:13;;;;;;;21.65;10.20;;;;;;;;;;4994751;28;20055;-66
2021/12/14 03:45:39;;;;;;;21.90;9.57;;;;;;;;;;4988029;28;20509;-66
2021/12/14 03:48:06;;;;;;;20.05;9.95;;;;;;;;;;4975185;28;20047;-66
2021/12/14 03:50:41;;;;;;;20.58;9.10;;;;;;;;;;4975538;28;20047;-65
2021/12/14 03:53:09;;;;;;;21.05;10.18;;;;;;;;;;4975176;28;20061;-66
2021/12/14 03:55:40;;;;;;;19.85;9.65;;;;;;;;;;4975260;28;20502;-66
2021/12/14 03:58:12;;;;;;;22.30;10.73;;;;;;;;;;4975101;28;20374;-65
2021/12/14 04:00:45;;;;;;;20.38;9.55;;;;;;;;;;4993615;28;20105;-65
2021/12/14 04:03:12;;;;;;;;;;;;;;;;;;4993709;28;20097;-65
2021/12/14 04:05:41;;;;;;;19.15;9.32;;;;;;;;;;4994627;28;19968;-65
2021/12/14 04:08:08;;;;;;;17.75;9.05;;;;;;;;;;4994232;28;20093;-65
2021/12/14 04:10:36;;;;;;;20.17;9.98;;;;;;;;;;4994634;28;20108;-65
2021/12/14 04:13:03;;;;;;;18.92;10.60;;;;;;;;;;4994903;28;20104;-65
2021/12/14 04:15:30;;;;;;;19.40;10.43;;;;;;;;;;4994355;28;20469;-65
2021/12/14 04:17:56;;;;;;;19.40;9.73;;;;;;;;;;4994307;28;20047;-64
2021/12/14 04:20:33;;;;;;;18.20;9.50;;;;;;;;;;4994232;28;20058;-64
2021/12/14 04:23:01;;;;;;;18.63;8.75;;;;;;;;;;4994047;28;20556;-65
2021/12/14 04:25:31;;;;;;;21.60;9.35;;;;;;;;;;4994117;28;20108;-64
2021/12/14 04:27:58;;;;;;;19.10;9.23;;;;;;;;;;4994021;28;20047;-64
2021/12/14 04:30:26;;;;;;;15.55;8.48;;;;;;;;;;4994022;28;20124;-64
2021/12/14 04:32:56;;;;;;;21.77;9.30;;;;;;;;;;4993958;28;20050;-64
2021/12/14 04:35:22;;;;;;;16.60;8.18;;;;;;;;;;4993896;28;20469;-64
2021/12/14 04:37:51;;;;;;;18.98;8.40;;;;;;;;;;4994056;28;20077;-64
2021/12/14 04:51:53;;;;;;;20.55;9.07;;;;;;;;;;4993934;28;20065;-64
2021/12/14 04:54:44;;;;;;;14.75;7.25;;;;;;;;;;4933187;29;20059;-64
2021/12/14 04:57:16;;;;;;;16.90;7.45;;;;;;;;;;4982646;28;20596;-65
2021/12/14 04:59:43;;;;;;;19.63;9.02;;;;;;;;;;4993173;28;20104;-65
2021/12/14 05:02:13;;;;;;;17.00;8.00;;;;;;;;;;4993344;28;20046;-65
2021/12/14 05:04:41;;;;;;;16.33;8.38;;;;;;;;;;4993375;28;20093;-64
2021/12/14 05:09:53;;;;;;;17.13;8.35;;;;;;;;;;4973877;28;20069;-64
2021/12/14 05:12:25;;;;;;;20.13;8.23;;;;;;;;;;4973977;28;20109;-65
2021/12/14 05:14:52;;;;;;;18.27;8.23;;;;;;;;;;4973499;28;20051;-64
2021/12/14 05:17:28;;;;;;;17.25;7.78;;;;;;;;;;4973766;28;20055;-65
2021/12/14 05:19:56;;;;;;;17.85;8.60;;;;;;;;;;4972641;28;20078;-65
2021/12/14 05:22:33;;;;;;;16.75;7.25;;;;;;;;;;4973658;28;20054;-65
2021/12/14 05:25:08;;;;;;;19.23;8.20;;;;;;;;;;4973552;28;20058;-65
2021/12/14 05:27:39;;;;;;;15.00;7.15;;;;;;;;;;4973651;28;20442;-65
2021/12/14 05:30:11;;;;;;;16.08;7.70;;;;;;;;;;4973577;28;20055;-65
2021/12/14 05:32:38;;;;;;;21.23;7.13;;;;;;;;;;4973379;28;20490;-64
2021/12/14 05:35:09;;;;;;;13.77;6.78;;;;;;;;;;4973716;28;20321;-65
2021/12/14 05:37:44;;;;;;;17.13;7.10;;;;;;;;;;4973253;28;20051;-64
2021/12/14 05:40:21;;;;;;;15.77;7.22;;;;;;;;;;4973314;28;20200;-65
2021/12/14 05:43:07;;;;;;;17.17;7.88;;;;;;;;;;4973394;28;20105;-64
2021/12/14 05:45:42;;;;;;;15.00;6.65;;;;;;;;;;4959102;28;20088;-64
2021/12/14 05:48:11;;;;;;;13.95;7.10;;;;;;;;;;4973271;28;20051;-64
2021/12/14 05:50:46;;;;;;;14.60;6.25;;;;;;;;;;4973253;28;20047;-64
2021/12/14 05:53:23;;;;;;;16.88;6.68;;;;;;;;;;4973163;28;20441;-65
2021/12/14 05:55:49;;;;;;;13.48;6.65;;;;;;;;;;4973093;28;20046;-65
2021/12/14 05:58:19;;;;;;;16.27;6.40;;;;;;;;;;4973081;28;20050;-65
2021/12/14 06:00:54;;;;;;;16.92;6.70;;;;;;;;;;4973241;28;20524;-65
2021/12/14 06:03:29;;;;;;;12.98;6.90;;;;;;;;;;4984078;28;20124;-64
2021/12/14 06:05:58;;;;;;;14.18;6.90;;;;;;;;;;4992620;28;20108;-64
2021/12/14 06:08:28;;;;;;;13.77;6.10;;;;;;;;;;4992528;28;20054;-64
2021/12/14 06:10:55;;;;;;;17.52;7.15;;;;;;;;;;4991589;28;20054;-65
2021/12/14 06:13:40;;;;;;;13.68;6.20;;;;;;;;;;4992212;28;20054;-65
2021/12/14 06:16:08;;;;;;;14.77;7.38;;;;;;;;;;4992443;28;20051;-65
2021/12/14 06:18:34;;;;;;;13.32;6.32;;;;;;;;;;4997991;28;20501;-65
2021/12/14 06:21:01;;;;;;;15.38;7.80;;;;;;;;;;4999293;28;20081;-65
2021/12/14 06:23:31;;;;;;;14.43;7.28;;;;;;;;;;4982814;28;20109;-65
2021/12/14 06:25:58;;;;;;;15.70;6.93;;;;;;;;;;4980564;28;20070;-65
2021/12/14 06:28:27;;;;;;;15.85;7.15;;;;;;;;;;4981498;28;20078;-65
2021/12/14 06:30:54;;;;;;;15.32;7.07;;;;;;;;;;4981713;28;20086;-66
2021/12/14 06:33:21;;;;;;;15.30;7.47;;;;;;;;;;4977038;28;20081;-65
2021/12/14 06:35:50;;;;;;;13.38;6.45;;;;;;;;;;4979127;28;20054;-65
2021/12/14 06:38:27;;;;;;;14.35;6.65;;;;;;;;;;4992217;28;20053;-65
2021/12/14 06:40:57;;;;;;;13.57;7.22;;;;;;;;;;4989975;28;20058;-65
2021/12/14 06:43:26;;;;;;;16.73;7.72;;;;;;;;;;4990200;28;20090;-65
2021/12/14 06:45:57;;;;;;;14.93;7.53;;;;;;;;;;4990181;28;20046;-65
2021/12/14 06:48:29;;;;;;;13.90;7.30;;;;;;;;;;4990016;28;20342;-66
2021/12/14 06:51:05;;;;;;;13.10;6.65;;;;;;;;;;4971889;28;20462;-66
2021/12/14 06:53:32;;;;;;;11.60;6.03;;;;;;;;;;4968931;28;20054;-66
2021/12/14 06:56:01;;;;;;;11.27;5.80;;;;;;;;;;4970606;28;20051;-66
2021/12/14 06:58:33;;;;;;;10.85;5.70;;;;;;;;;;4970626;28;20114;-66
2021/12/14 07:01:10;;;;;;;8.30;5.68;;;;;;;;;;4970672;28;20502;-66
2021/12/14 07:03:44;;;;;;;10.77;6.47;;;;;;;;;;4980021;28;20093;-66
2021/12/14 07:06:41;;;;;;;11.85;6.40;;;;;;;;;;4989914;28;20105;-66
2021/12/14 07:09:17;;;;;;;14.82;6.85;;;;;;;;;;4977177;28;20132;-65
2021/12/14 07:11:47;;;;;;;17.73;7.95;;;;;;;;;;4990079;28;20461;-66
2021/12/14 07:14:26;;;;;;;13.35;7.22;;;;;;;;;;4989901;28;20051;-65
2021/12/14 07:16:58;;;;;;;8.85;6.10;;;;;;;;;;4986934;28;20046;-66
2021/12/14 07:19:43;;;;;;;10.63;6.22;;;;;;;;;;4989554;28;20054;-66
2021/12/14 07:22:31;;;;;;;10.52;6.10;;;;;;;;;;4990610;28;20054;-66
2021/12/14 07:24:59;;;;;;;13.48;5.90;;;;;;;;;;4993282;28;20081;-66
2021/12/14 07:27:28;;;;;;;8.73;5.35;;;;;;;;;;4993627;28;20421;-66
2021/12/14 07:30:26;;;;;;;8.75;4.93;;;;;;;;;;4993542;28;20108;-65
2021/12/14 07:33:01;;;;;;;9.82;5.60;;;;;;;;;;4991607;28;20050;-65
2021/12/14 07:35:46;;;;;;;9.30;5.70;;;;;;;;;;4980950;28;20120;-67
2021/12/14 07:38:28;;;;;;;11.45;6.95;;;;;;;;;;5008182;28;20119;-65
2021/12/14 07:41:24;;;;;;;13.90;6.80;;;;;;;;;;5005696;28;20053;-65
2021/12/14 07:43:54;;;;;;;11.23;6.38;;;;;;;;;;5005244;28;20142;-65
2021/12/14 07:46:26;;;;;;;9.32;5.93;;;;;;;;;;5007316;28;20127;-65
2021/12/14 07:48:57;;;;;;;10.73;5.87;;;;;;;;;;5010622;28;20126;-65
2021/12/14 07:51:25;;;;;;;10.32;5.97;;;;;;;;;;5010323;28;20437;-66
2021/12/14 07:54:15;;;;;;;9.13;6.00;;;;;;;;;;5010273;28;20124;-66
2021/12/14 07:56:50;;;;;;;9.77;5.38;;;;;;;;;;5010868;28;20516;-66
2021/12/14 07:59:26;;;;;;;9.27;5.13;;;;;;;;;;5005800;28;20050;-66
2021/12/14 08:02:14;;;;;;;8.85;5.85;;;;;;;;;;5007882;28;20042;-66
2021/12/14 08:04:46;;;;;;;7.72;5.38;;;;;;;;;;5006748;28;20046;-66
2021/12/14 08:07:28;;;;;;;10.43;5.25;;;;;;;;;;5010463;28;20046;-66
2021/12/14 08:10:14;;;;;;;9.00;5.63;;;;;;;;;;5005707;28;20394;-66
2021/12/14 08:12:45;;;;;;;8.77;5.20;;;;;;;;;;5009813;28;20068;-66
2021/12/14 08:15:14;;;;;;;8.15;4.68;;;;;;;;;;5008182;28;20124;-66
2021/12/14 08:17:41;;;;;;;8.18;5.57;;;;;;;;;;5010249;28;20050;-68
2021/12/14 08:20:12;;;;;;;7.63;5.10;;;;;;;;;;5010074;28;20414;-66
2021/12/14 08:22:53;;;;;;;8.90;5.57;;;;;;;;;;4993632;28;20046;-67
2021/12/14 08:25:26;;;;;;;8.63;5.57;;;;;;;;;;5002863;28;20124;-65
2021/12/14 08:28:02;;;;;;;8.95;5.05;;;;;;;;;;5005527;28;20117;-65
2021/12/14 08:30:29;;;;;;;7.57;5.50;;;;;;;;;;5010042;28;20038;-67
2021/12/14 08:32:56;;;;;;;9.02;5.03;;;;;;;;;;5010313;28;20049;-66
2021/12/14 08:35:23;;;;;;;8.77;5.35;;;;;;;;;;5007628;28;20049;-66
2021/12/14 08:37:54;;;;;;;7.82;4.57;;;;;;;;;;5009468;28;20559;-66
2021/12/14 08:40:27;;;;;;;7.78;5.10;;;;;;;;;;5008340;28;20107;-67
2021/12/14 08:43:05;;;;;;;7.53;5.38;;;;;;;;;;5008506;28;20513;-67
2021/12/14 08:45:36;;;;;;;11.10;5.45;;;;;;;;;;5009778;28;20053;-66
2021/12/14 08:48:02;;;;;;;9.27;5.18;;;;;;;;;;5009517;28;20521;-65
2021/12/14 08:50:32;;;;;;;7.10;4.70;;;;;;;;;;5009119;28;20045;-67
2021/12/14 08:52:59;;;;;;;7.13;4.55;;;;;;;;;;5007655;28;20041;-67
2021/12/14 08:55:31;;;;;;;9.02;5.53;;;;;;;;;;5009448;28;20465;-65
2021/12/14 08:57:59;;;;;;;8.18;5.80;;;;;;;;;;5006648;28;20497;-67
2021/12/14 09:00:33;;;;;;;6.72;4.97;;;;;;;;;;4989609;28;20480;-69
2021/12/14 09:03:01;;;;;;;7.97;5.32;;;;;;;;;;5001267;28;20100;-64
2021/12/14 09:05:38;;;;;;;7.13;5.20;;;;;;;;;;5007861;28;20045;-66
2021/12/14 09:08:05;;;;;;;8.20;5.13;;;;;;;;;;5001832;28;20513;-65
2021/12/14 09:10:33;;;;;;;8.13;4.97;;;;;;;;;;5011082;28;20108;-65
2021/12/14 09:13:02;;;;;;;6.38;4.75;;;;;;;;;;5010614;28;20054;-66
2021/12/14 09:15:36;;;;;;;9.32;5.45;;;;;;;;;;5010316;28;20049;-65
2021/12/14 09:18:03;;;;;;;6.75;4.82;;;;;;;;;;5008855;28;20054;-65
2021/12/14 09:20:38;;;;;;;7.35;5.07;;;;;;;;;;5009389;28;20107;-65
2021/12/14 09:23:11;;;;;;;9.75;5.97;;;;;;;;;;5006878;28;20046;-65
2021/12/14 09:25:39;;;;;;;9.25;4.95;;;;;;;;;;5009473;28;20073;-65
2021/12/14 09:28:07;;;;;;;6.78;4.55;;;;;;;;;;5010682;28;20104;-65
2021/12/14 09:30:36;;;;;;;7.28;5.22;;;;;;;;;;5009586;28;20046;-65
2021/12/14 09:33:04;;;;;;;7.47;4.60;;;;;;;;;;5010386;28;20406;-65
2021/12/14 09:35:34;;;;;;;9.77;4.68;;;;;;;;;;5010900;28;20069;-65
2021/12/14 09:38:05;;;;;;;6.47;4.22;;;;;;;;;;5010417;28;20092;-65
2021/12/14 09:40:40;;;;;;;6.55;4.72;;;;;;;;;;5010955;28;20046;-66
2021/12/14 09:43:07;;;;;;;9.35;5.13;;;;;;;;;;5009131;28;20103;-66
2021/12/14 09:45:43;;;;;;;6.70;4.90;;;;;;;;;;5010389;28;20053;-66
2021/12/14 09:48:12;;;;;;;6.30;5.10;;;;;;;;;;5006448;28;20096;-65
2021/12/14 09:50:39;;;;;;;6.72;4.88;;;;;;;;;;5010395;28;21213;-66
2021/12/14 09:53:09;;;;;;;7.30;5.30;;;;;;;;;;5010521;28;20475;-66
2021/12/14 09:55:39;;;;;;;6.68;5.20;;;;;;;;;;5010005;28;20050;-65
2021/12/14 09:58:09;;;;;;;6.38;4.75;;;;;;;;;;5009558;28;20046;-65
2021/12/14 10:00:49;;;;;;;6.72;4.88;;;;;;;;;;5008809;28;20093;-66
2021/12/14 10:03:16;;;;;;;8.55;5.72;;;;;;;;;;5009749;28;20076;-65
2021/12/14 10:06:15;;;;;;;7.22;5.25;;;;;;;;;;5010550;28;20045;-65
2021/12/14 10:08:48;;;;;;;8.20;4.82;;;;;;;;;;5006511;28;20101;-66
2021/12/14 10:11:34;;;;;;;8.18;5.07;;;;;;;;;;5008653;28;20058;-65
2021/12/14 10:14:02;;;;;;;7.88;4.82;;;;;;;;;;5010900;28;20108;-65
2021/12/14 10:16:29;;;;;;;8.93;5.72;;;;;;;;;;5003529;28;20463;-65
2021/12/14 10:18:59;;;;;;;6.72;5.18;;;;;;;;;;5010233;28;20288;-66
2021/12/14 10:21:35;;;;;;;9.10;5.50;;;;;;;;;;5009923;28;20050;-65
2021/12/14 10:24:03;;;;;;;8.73;5.53;;;;;;;;;;5007679;28;20072;-64
2021/12/14 10:26:31;;;;;;;7.28;5.43;;;;;;;;;;5010000;28;20050;-65
2021/12/14 10:28:59;;;;;;;8.32;5.93;;;;;;;;;;5010349;28;20050;-65
2021/12/14 10:31:32;;;;;;;8.98;5.60;;;;;;;;;;5010281;28;20042;-65
2021/12/14 10:34:01;;;;;;;8.70;5.82;;;;;;;;;;5004198;28;20050;-66
2021/12/14 10:36:34;;;;;;;8.27;5.90;;;;;;;;;;5009602;28;20100;-65
2021/12/14 10:44:31;;;;;;;7.90;6.30;;;;;;;;;;5009185;28;20046;-68
2021/12/14 10:46:58;;;;;;;9.43;5.90;;;;;;;;;;5009565;28;20049;-67
2021/12/14 10:49:26;;;;;;;7.80;5.70;;;;;;;;;;5009718;28;20085;-69
2021/12/14 10:51:56;;;;;;;10.77;6.35;;;;;;;;;;5002409;28;20104;-67
2021/12/14 10:54:23;;;;;;;8.52;5.93;;;;;;;;;;5000942;28;20076;-68
2021/12/14 10:56:55;;;;;;;7.68;5.68;;;;;;;;;;5006095;28;20050;-66
2021/12/14 10:59:25;;;;;;;11.75;7.57;;;;;;;;;;5011942;28;20042;-67
2021/12/14 11:01:52;;;;;;;9.88;6.28;;;;;;;;;;5013280;28;20046;-68
2021/12/14 11:04:33;;;;;;;11.65;6.57;;;;;;;;;;5009085;28;20045;-69
2021/12/14 11:07:02;;;;;;;10.45;6.47;;;;;;;;;;5010317;28;20049;-67
2021/12/14 11:09:41;;;;;;;11.13;8.20;;;;;;;;;;5013625;28;20100;-69
2021/12/14 11:12:17;;;;;;;13.38;8.23;;;;;;;;;;5011890;28;20418;-67
2021/12/14 11:14:45;;;;;;;13.48;8.13;;;;;;;;;;5012881;28;20050;-70
2021/12/14 11:20:15;;;;;;;13.13;9.00;;;;;;;;;;5011044;28;20042;-69
2021/12/14 11:23:13;;;;;;;12.05;8.52;;;;;;;;;;5013162;28;20069;-68
2021/12/14 11:25:49;;;;;;;12.40;8.77;;;;;;;;;;5013291;28;20052;-68
2021/12/14 11:28:31;;;;;;;10.85;8.02;;;;;;;;;;5012857;28;20483;-65
2021/12/14 11:31:11;;;;;;;13.73;7.88;;;;;;;;;;5005977;28;20136;-66
2021/12/14 11:33:49;;;;;;;10.43;8.13;;;;;;;;;;5013080;28;20483;-65
2021/12/14 11:36:19;;;;;;;10.43;7.57;;;;;;;;;;5012030;28;20417;-66
2021/12/14 11:38:56;;;;;;;12.13;8.65;;;;;;;;;;5012695;28;20468;-66
2021/12/14 11:41:30;;;;;;;10.82;8.00;;;;;;;;;;5010463;28;20456;-65
2021/12/14 11:43:59;;;;;;;;;;;;;;;;;;5013073;28;20050;-66
2021/12/14 11:46:28;;;;;;;13.05;7.68;;;;;;;;;;5007808;28;19992;-66
2021/12/14 11:48:58;;;;;;;10.60;7.90;;;;;;;;;;5010888;28;20072;-66
2021/12/14 11:51:26;;;;;;;11.55;8.10;;;;;;;;;;5012338;28;20341;-66
2021/12/14 11:53:54;;;;;;;10.75;7.90;;;;;;;;;;5008658;28;20049;-69
2021/12/14 11:56:24;;;;;;;11.38;8.32;;;;;;;;;;5010854;28;20058;-70
2021/12/14 11:58:56;;;;;;;12.07;8.80;;;;;;;;;;5012485;28;20559;-67
2021/12/14 12:01:42;;;;;;;11.82;7.72;;;;;;;;;;5011951;28;20050;-70
2021/12/14 12:04:16;;;;;;;10.68;7.70;;;;;;;;;;5011931;28;20053;-68
2021/12/14 12:06:45;;;;;;;12.63;8.10;;;;;;;;;;5005426;28;20050;-68
2021/12/14 12:09:32;;;;;;;12.40;8.10;;;;;;;;;;5011151;28;20142;-68
2021/12/14 12:12:07;;;;;;;12.43;8.27;;;;;;;;;;5012649;28;20112;-73
2021/12/14 12:14:45;;;;;;;11.32;7.97;;;;;;;;;;5006557;28;20089;-67
2021/12/14 12:17:27;;;;;;;14.57;9.02;;;;;;;;;;5009993;28;20133;-69
2021/12/14 12:20:08;;;;;;;12.00;8.30;;;;;;;;;;5012475;28;20042;-69
2021/12/14 12:22:43;;;;;;;10.27;7.90;;;;;;;;;;5012143;28;20053;-69
2021/12/14 12:25:33;;;;;;;14.40;9.10;;;;;;;;;;5006257;28;20060;-69
2021/12/14 12:28:03;;;;;;;13.68;9.52;;;;;;;;;;5004948;28;20077;-69
2021/12/14 12:30:49;;;;;;;17.85;12.23;;;;;;;;;;5010047;28;20357;-70
2021/12/14 12:33:30;;;;;;;16.25;10.60;;;;;;;;;;5011511;28;20076;-70
2021/12/14 12:36:08;;;;;;;13.23;9.88;;;;;;;;;;5008186;28;20120;-69
2021/12/14 12:38:53;;;;;;;10.82;8.45;;;;;;;;;;5007899;28;20117;-69
2021/12/14 12:41:38;;;;;;;12.18;8.32;;;;;;;;;;5008449;28;20128;-67
2021/12/14 12:44:17;;;;;;;12.55;8.02;;;;;;;;;;5010399;28;20501;-67
2021/12/14 12:46:56;;;;;;;13.75;8.27;;;;;;;;;;5011313;28;20070;-70
2021/12/14 12:49:32;;;;;;;11.32;8.13;;;;;;;;;;5006605;28;20054;-69
2021/12/14 12:52:00;;;;;;;9.98;7.30;;;;;;;;;;5008807;28;20069;-67
2021/12/14 12:54:32;;;;;;;11.23;8.00;;;;;;;;;;5010920;28;20057;-69
2021/12/14 12:57:09;;;;;;;12.35;8.95;;;;;;;;;;5011252;28;20084;-67
2021/12/14 12:59:49;;;;;;;13.80;8.38;;;;;;;;;;5011709;28;20057;-70
2021/12/14 13:02:35;;;;;;;12.05;9.00;;;;;;;;;;5006980;28;20100;-68
2021/12/14 13:05:16;;;;;;;14.75;9.23;;;;;;;;;;5008531;28;20066;-68
2021/12/14 13:07:50;;;;;;;12.38;8.32;;;;;;;;;;5005238;28;20057;-70
2021/12/14 13:10:26;;;;;;;13.15;7.88;;;;;;;;;;5000120;28;20493;-68
2021/12/14 13:12:56;;;;;;;14.55;8.15;;;;;;;;;;5011035;28;20046;-71
2021/12/14 13:15:28;;;;;;;10.75;7.65;;;;;;;;;;5003630;28;20057;-68
2021/12/14 13:18:45;;;;;;;10.40;7.25;;;;;;;;;;5009879;28;20046;-68
2021/12/14 13:21:21;;;;;;;12.85;8.70;;;;;;;;;;4966050;28;20498;-68
2021/12/14 13:23:59;;;;;;;13.25;8.98;;;;;;;;;;5011078;28;20054;-68
2021/12/14 13:26:29;;;;;;;11.70;9.38;;;;;;;;;;5009605;28;20042;-68
2021/12/14 13:29:04;;;;;;;12.18;8.45;;;;;;;;;;5010891;28;20045;-68
2021/12/14 13:31:34;;;;;;;11.82;8.45;;;;;;;;;;5010092;28;20042;-68
2021/12/14 13:34:03;;;;;;;11.95;8.85;;;;;;;;;;5008312;28;20046;-68
2021/12/14 13:36:30;;;;;;;11.93;8.48;;;;;;;;;;5012328;28;20680;-69
2021/12/14 13:38:57;;;;;;;13.18;9.48;;;;;;;;;;5010296;28;20115;-70
2021/12/14 13:41:30;;;;;;;14.38;9.30;;;;;;;;;;5011049;28;20107;-68
2021/12/14 13:43:57;;;;;;;11.98;9.23;;;;;;;;;;5008919;28;20042;-68
2021/12/14 13:46:24;;;;;;;11.80;9.20;;;;;;;;;;5008903;28;20085;-68
2021/12/14 13:48:50;;;;;;;12.82;8.32;;;;;;;;;;5008946;28;20096;-68
2021/12/14 13:51:20;;;;;;;19.20;9.10;;;;;;;;;;5010223;28;20060;-68
2021/12/14 13:53:48;;;;;;;12.70;8.65;;;;;;;;;;5010507;28;20050;-68
2021/12/14 13:56:19;;;;;;;12.93;8.63;;;;;;;;;;5010309;28;20054;-68
2021/12/14 13:58:46;;;;;;;14.23;9.63;;;;;;;;;;5010856;28;20149;-68
2021/12/14 14:01:17;;;;;;;13.55;8.60;;;;;;;;;;5009973;28;20125;-68
2021/12/14 14:03:47;;;;;;;13.60;9.18;;;;;;;;;;5003502;28;20468;-68
2021/12/14 14:06:18;;;;;;;15.35;9.05;;;;;;;;;;5009051;28;20058;-68
2021/12/14 14:08:48;;;;;;;16.30;9.07;;;;;;;;;;5010256;28;20477;-68
2021/12/14 14:11:22;;;;;;;14.68;10.05;;;;;;;;;;4992222;28;20552;-68
2021/12/14 14:13:50;;;;;;;15.60;8.50;;;;;;;;;;5009967;28;20042;-68
2021/12/14 14:16:17;;;;;;;16.48;9.23;;;;;;;;;;5009705;28;20059;-68
2021/12/14 14:18:50;;;;;;;16.33;10.20;;;;;;;;;;5009267;28;20056;-68
2021/12/14 14:21:27;;;;;;;18.50;10.10;;;;;;;;;;5010369;28;20053;-69
2021/12/14 14:23:54;;;;;;;17.55;10.40;;;;;;;;;;5008424;28;20050;-68
2021/12/14 14:26:33;;;;;;;19.75;11.32;;;;;;;;;;5010066;28;20506;-68
2021/12/14 14:29:12;;;;;;;19.90;11.13;;;;;;;;;;5005052;28;20452;-68
2021/12/14 14:31:48;;;;;;;20.17;11.25;;;;;;;;;;5008854;28;20516;-68
2021/12/14 14:34:23;;;;;;;19.15;11.52;;;;;;;;;;5013489;28;20084;-68
2021/12/14 14:37:02;;;;;;;22.10;12.85;;;;;;;;;;5013894;28;20054;-68
2021/12/14 14:39:33;;;;;;;20.45;11.88;;;;;;;;;;5013958;28;20848;-68
2021/12/14 14:42:10;;;;;;;19.23;11.23;;;;;;;;;;5012718;28;20541;-68
2021/12/14 14:44:40;;;;;;;20.45;11.30;;;;;;;;;;5013620;28;20137;-68
2021/12/14 14:47:24;;;;;;;21.50;12.15;;;;;;;;;;5014461;28;20054;-68
2021/12/14 14:49:56;;;;;;;20.42;11.88;;;;;;;;;;5013812;28;20046;-68
2021/12/14 14:52:33;;;;;;;25.00;13.00;;;;;;;;;;5013323;28;20055;-68
2021/12/14 14:55:11;;;;;;;22.10;11.95;;;;;;;;;;5013191;28;20497;-68
2021/12/14 14:57:43;;;;;;;27.67;14.00;;;;;;;;;;5014182;28;20045;-68
2021/12/14 15:00:16;;;;;;;22.40;12.25;;;;;;;;;;5013274;28;20505;-68
2021/12/14 15:02:52;;;;;;;23.05;12.38;;;;;;;;;;5013736;28;20072;-68
2021/12/14 15:05:21;;;;;;;21.85;12.07;;;;;;;;;;5012821;28;20053;-68
2021/12/14 15:07:56;;;;;;;24.63;12.40;;;;;;;;;;5005745;28;20132;-68
2021/12/14 15:10:30;;;;;;;23.48;11.20;;;;;;;;;;4994786;28;20089;-68
2021/12/14 15:13:18;;;;;;;22.10;11.82;;;;;;;;;;4994486;28;20421;-67
2021/12/14 15:16:00;;;;;;;20.63;11.48;;;;;;;;;;4994795;28;20042;-68
2021/12/14 15:18:51;;;;;;;22.10;11.10;;;;;;;;;;4980109;28;20057;-67
2021/12/14 15:21:31;;;;;;;19.48;11.60;;;;;;;;;;4996009;28;20049;-69
2021/12/14 15:24:26;;;;;;;20.02;12.05;;;;;;;;;;4994198;28;20104;-70
2021/12/14 15:27:20;;;;;;;19.42;11.32;;;;;;;;;;5010230;28;20411;-69
2021/12/14 15:29:49;;;;;;;22.95;12.43;;;;;;;;;;5002624;28;20456;-68
2021/12/14 15:32:19;;;;;;;17.90;10.38;;;;;;;;;;5011393;28;20046;-67
2021/12/14 15:35:07;;;;;;;17.92;10.65;;;;;;;;;;5012248;28;20045;-68
2021/12/14 15:37:45;;;;;;;17.58;10.82;;;;;;;;;;5010817;28;20054;-70
2021/12/14 15:40:15;;;;;;;20.23;11.93;;;;;;;;;;5011305;28;20077;-69